Time;durP1;ratioP1;P1;durP2;ratioP2;P2;SDS_P1;SDS_P2;PMS_P1;PMS_P2;Temp;Humidity;BMP_temperature;BMP_pressure;BME280_temperature;BME280_humidity;BME280_pressure;Samples;Min_cycle;Max_cycle;Signal;HPM_P1;HPM_P2
2021/01/26 00:01:21;;;;;;;18.70;4.00;;;5.30;99.90;;;;;;5079739;28;20127;-69
2021/01/26 00:03:47;;;;;;;11.90;2.70;;;5.20;99.90;;;;;;5079236;28;20020;-67
2021/01/26 00:06:13;;;;;;;19.02;2.88;;;5.30;99.90;;;;;;5081975;28;20035;-67
2021/01/26 00:08:39;;;;;;;14.30;3.05;;;5.30;99.90;;;;;;5099808;28;20387;-66
2021/01/26 00:11:05;;;;;;;18.50;3.53;;;5.30;99.90;;;;;;5090188;28;20032;-65
2021/01/26 00:13:32;;;;;;;11.60;2.97;;;5.30;99.90;;;;;;5089548;28;20073;-67
2021/01/26 00:15:58;;;;;;;12.85;2.63;;;5.30;99.90;;;;;;5079244;28;20048;-66
2021/01/26 00:18:23;;;;;;;21.00;2.80;;;5.40;99.90;;;;;;5095739;28;20125;-66
2021/01/26 00:20:50;;;;;;;18.95;3.08;;;5.30;99.90;;;;;;5090581;28;20043;-67
2021/01/26 00:23:17;;;;;;;13.70;3.28;;;5.30;99.90;;;;;;5080293;28;20021;-68
2021/01/26 00:25:43;;;;;;;11.50;3.30;;;5.40;99.90;;;;;;5073936;28;20029;-68
2021/01/26 00:28:11;;;;;;;20.08;3.00;;;5.40;99.90;;;;;;5076365;28;20086;-67
2021/01/26 00:30:39;;;;;;;11.35;2.60;;;5.40;99.90;;;;;;5069436;28;20401;-65
2021/01/26 00:33:08;;;;;;;20.60;3.00;;;5.40;99.90;;;;;;5070345;28;20505;-68
2021/01/26 00:35:34;;;;;;;8.30;2.65;;;5.30;99.90;;;;;;5083748;28;20552;-67
2021/01/26 00:38:01;;;;;;;14.93;3.10;;;5.30;99.90;;;;;;5090125;28;20112;-67
2021/01/26 00:40:30;;;;;;;16.02;2.88;;;5.30;99.90;;;;;;5090551;28;20032;-67
2021/01/26 00:42:56;;;;;;;11.45;3.17;;;5.30;99.90;;;;;;5088237;28;20111;-66
2021/01/26 00:45:23;;;;;;;13.95;3.17;;;5.30;99.90;;;;;;5085090;28;20059;-67
2021/01/26 00:47:50;;;;;;;12.07;2.47;;;5.30;99.90;;;;;;5090407;28;21272;-64
2021/01/26 00:50:17;;;;;;;12.60;2.47;;;5.30;99.90;;;;;;5081232;28;20027;-66
2021/01/26 00:52:42;;;;;;;11.60;2.92;;;5.30;99.90;;;;;;5076101;28;20035;-69
2021/01/26 00:55:09;;;;;;;11.00;2.80;;;5.30;99.90;;;;;;5089525;28;20032;-66
2021/01/26 00:57:37;;;;;;;13.80;2.85;;;5.30;99.90;;;;;;5090282;28;20024;-67
2021/01/26 01:00:10;;;;;;;16.50;2.55;;;5.30;99.90;;;;;;5094082;28;20016;-67
2021/01/26 01:02:36;;;;;;;11.25;2.58;;;5.30;99.90;;;;;;5093247;28;20032;-66
2021/01/26 01:05:03;;;;;;;22.00;3.38;;;5.30;99.90;;;;;;5096665;28;20581;-69
2021/01/26 01:07:28;;;;;;;11.35;2.85;;;5.30;99.90;;;;;;5090525;28;20029;-68
2021/01/26 01:09:54;;;;;;;15.63;3.22;;;5.40;99.90;;;;;;5089787;28;20072;-66
2021/01/26 01:12:21;;;;;;;22.27;3.53;;;5.40;99.90;;;;;;5075331;28;20099;-65
2021/01/26 01:14:46;;;;;;;18.35;3.15;;;5.30;99.90;;;;;;5106363;28;20048;-66
2021/01/26 01:17:12;;;;;;;16.95;2.72;;;5.30;99.90;;;;;;5075877;28;20028;-64
2021/01/26 01:19:38;;;;;;;15.10;3.03;;;5.30;99.90;;;;;;5089711;28;20075;-67
2021/01/26 01:22:03;;;;;;;15.95;3.53;;;5.20;99.90;;;;;;5100011;28;20447;-65
2021/01/26 01:24:29;;;;;;;26.98;4.03;;;5.20;99.90;;;;;;5088308;28;20074;-67
2021/01/26 01:26:55;;;;;;;14.63;3.10;;;5.20;99.90;;;;;;5070013;28;20027;-68
2021/01/26 01:29:20;;;;;;;18.05;2.90;;;5.30;99.90;;;;;;5089579;28;20026;-66
2021/01/26 01:31:46;;;;;;;12.60;3.17;;;5.20;99.90;;;;;;5098373;28;20540;-68
2021/01/26 01:34:14;;;;;;;11.35;2.85;;;5.20;99.90;;;;;;5102101;28;20512;-68
2021/01/26 01:36:39;;;;;;;22.80;3.22;;;5.20;99.90;;;;;;5095966;28;20132;-68
2021/01/26 01:39:07;;;;;;;14.57;2.60;;;5.20;99.90;;;;;;5085633;28;20103;-66
2021/01/26 01:41:35;;;;;;;15.45;2.58;;;5.20;99.90;;;;;;5091745;28;20059;-66
2021/01/26 01:44:01;;;;;;;10.85;2.13;;;5.30;99.90;;;;;;5071103;28;20157;-64
2021/01/26 01:46:30;;;;;;;20.92;2.80;;;5.20;99.90;;;;;;5086725;28;20529;-67
2021/01/26 01:48:59;;;;;;;14.23;2.53;;;5.00;99.90;;;;;;5088399;28;20047;-67
2021/01/26 01:51:28;;;;;;;12.70;2.40;;;5.00;99.90;;;;;;5089397;28;20039;-65
2021/01/26 01:54:01;;;;;;;24.23;3.30;;;5.00;99.90;;;;;;5088323;28;20481;-68
2021/01/26 01:56:35;;;;;;;13.35;2.72;;;5.00;99.90;;;;;;5069951;28;20114;-66
2021/01/26 01:59:09;;;;;;;8.05;2.20;;;5.00;99.90;;;;;;5088968;28;20020;-66
2021/01/26 02:01:35;;;;;;;7.13;1.63;;;4.80;99.90;;;;;;5088615;28;20031;-67
2021/01/26 02:04:08;;;;;;;12.82;1.75;;;4.70;99.90;;;;;;5081200;28;20030;-65
2021/01/26 02:06:34;;;;;;;;;;;4.60;99.90;;;;;;5088124;28;20073;-68
2021/01/26 02:09:09;;;;;;;16.88;2.30;;;4.60;99.90;;;;;;5075213;28;20373;-66
2021/01/26 02:11:35;;;;;;;11.15;1.75;;;4.60;99.90;;;;;;5084582;28;20505;-66
2021/01/26 02:14:01;;;;;;;19.77;2.45;;;4.60;99.90;;;;;;5087752;28;20074;-67
2021/01/26 02:16:51;;;;;;;14.85;3.22;;;4.60;99.90;;;;;;5074435;28;20071;-66
2021/01/26 02:19:44;;;;;;;12.75;3.20;;;4.70;99.90;;;;;;5078535;28;20020;-67
2021/01/26 02:22:34;;;;;;;27.77;3.20;;;4.70;99.90;;;;;;5087661;28;20063;-69
2021/01/26 02:25:15;;;;;;;15.98;2.72;;;4.80;99.90;;;;;;5086962;28;20036;-67
2021/01/26 02:28:18;;;;;;;19.08;3.25;;;4.90;99.90;;;;;;5075740;28;20028;-67
2021/01/26 02:30:50;;;;;;;12.15;3.03;;;4.90;99.90;;;;;;5084830;28;20028;-67
2021/01/26 02:33:24;;;;;;;16.17;2.47;;;5.00;99.90;;;;;;5081903;28;20032;-65
2021/01/26 02:36:16;;;;;;;29.95;3.17;;;5.00;99.90;;;;;;5087425;28;20036;-68
2021/01/26 02:39:18;;;;;;;18.77;2.67;;;5.00;99.90;;;;;;5086742;28;20647;-65
2021/01/26 02:41:50;;;;;;;32.00;3.03;;;5.10;99.90;;;;;;5082254;28;20020;-68
2021/01/26 02:44:33;;;;;;;17.15;2.72;;;5.10;99.90;;;;;;5084041;28;20256;-68
2021/01/26 02:47:15;;;;;;;19.15;3.38;;;5.10;99.90;;;;;;5075728;28;20024;-66
2021/01/26 02:49:51;;;;;;;15.90;3.45;;;5.10;99.90;;;;;;5083054;28;20055;-65
2021/01/26 02:52:34;;;;;;;15.13;2.60;;;5.10;99.90;;;;;;5086905;28;20473;-66
2021/01/26 02:55:22;;;;;;;19.88;2.67;;;5.20;99.90;;;;;;5084644;28;20030;-68
2021/01/26 02:57:52;;;;;;;14.63;3.35;;;5.20;99.90;;;;;;5084890;28;20025;-67
2021/01/26 03:00:25;;;;;;;15.63;2.80;;;5.20;99.90;;;;;;5084759;28;20024;-68
2021/01/26 03:02:55;;;;;;;14.43;3.20;;;5.20;99.90;;;;;;5084805;28;20044;-67
2021/01/26 03:05:22;;;;;;;19.38;3.33;;;5.10;99.90;;;;;;5088437;28;20131;-66
2021/01/26 03:07:54;;;;;;;18.98;2.85;;;5.00;99.90;;;;;;5075064;28;20059;-66
2021/01/26 03:10:23;;;;;;;15.55;3.13;;;4.90;99.90;;;;;;5084107;28;20093;-66
2021/01/26 03:13:01;;;;;;;25.48;4.32;;;4.80;99.90;;;;;;5082115;28;20020;-67
2021/01/26 03:15:49;;;;;;;20.02;3.33;;;4.70;99.90;;;;;;5070035;28;20036;-67
2021/01/26 03:18:18;;;;;;;21.30;3.33;;;4.80;99.90;;;;;;5070703;28;20036;-66
2021/01/26 03:20:50;;;;;;;20.92;3.35;;;4.80;99.90;;;;;;5087322;28;20021;-66
2021/01/26 03:23:20;;;;;;;22.45;3.45;;;4.70;99.90;;;;;;5087977;28;20066;-66
2021/01/26 03:25:51;;;;;;;22.02;4.35;;;4.70;99.90;;;;;;5072676;28;20036;-69
2021/01/26 03:28:19;;;;;;;16.00;3.22;;;4.60;99.90;;;;;;5091670;28;20024;-66
2021/01/26 03:30:48;;;;;;;16.15;2.85;;;4.50;99.90;;;;;;5086852;28;20605;-68
2021/01/26 03:33:19;;;;;;;23.10;3.38;;;4.50;99.90;;;;;;5089379;28;20029;-69
2021/01/26 03:35:45;;;;;;;23.13;4.25;;;4.50;99.90;;;;;;5090027;28;20032;-67
2021/01/26 03:38:23;;;;;;;24.15;3.90;;;4.50;99.90;;;;;;5091232;28;20440;-66
2021/01/26 03:40:51;;;;;;;15.95;3.03;;;4.60;99.90;;;;;;5086871;28;20040;-67
2021/01/26 03:43:16;;;;;;;33.65;3.92;;;4.60;99.90;;;;;;5082245;28;20106;-67
2021/01/26 03:45:45;;;;;;;23.75;4.03;;;4.50;99.90;;;;;;5080210;28;20443;-68
2021/01/26 03:48:29;;;;;;;16.95;3.45;;;4.50;99.90;;;;;;5089097;28;20095;-67
2021/01/26 03:51:06;;;;;;;17.70;3.25;;;4.60;99.90;;;;;;5087153;28;20503;-66
2021/01/26 03:53:58;;;;;;;22.80;3.22;;;4.60;99.90;;;;;;5088772;28;20028;-65
2021/01/26 03:56:23;;;;;;;33.37;3.67;;;4.60;99.90;;;;;;5087495;28;20121;-68
2021/01/26 03:59:10;;;;;;;17.92;3.15;;;4.70;99.90;;;;;;5088648;28;20472;-65
2021/01/26 04:01:47;;;;;;;31.42;3.47;;;4.70;99.90;;;;;;5088543;28;20024;-67
2021/01/26 04:04:49;;;;;;;15.45;2.83;;;4.70;99.90;;;;;;5086094;28;20401;-68
2021/01/26 04:07:27;;;;;;;19.50;3.22;;;4.80;99.90;;;;;;5086000;28;20420;-69
2021/01/26 04:10:03;;;;;;;16.52;2.63;;;4.80;99.90;;;;;;5085416;28;20103;-67
2021/01/26 04:12:35;;;;;;;19.80;3.33;;;4.80;99.90;;;;;;5087248;28;20461;-69
2021/01/26 04:15:11;;;;;;;21.15;4.28;;;4.80;99.90;;;;;;5086828;28;20098;-68
2021/01/26 04:17:43;;;;;;;15.85;3.35;;;4.80;99.90;;;;;;5090455;28;20055;-66
2021/01/26 04:20:18;;;;;;;17.60;3.13;;;4.90;99.90;;;;;;5090699;28;20028;-66
2021/01/26 04:22:44;;;;;;;19.83;2.88;;;5.00;99.90;;;;;;5072491;28;20024;-66
2021/01/26 04:25:28;;;;;;;21.38;2.97;;;5.00;99.90;;;;;;5084267;28;20090;-66
2021/01/26 04:27:53;;;;;;;19.88;2.97;;;5.00;99.90;;;;;;5088424;28;20536;-68
2021/01/26 04:30:19;;;;;;;18.27;2.60;;;4.90;99.90;;;;;;5090105;28;20028;-66
2021/01/26 04:32:45;;;;;;;15.43;2.90;;;4.90;99.90;;;;;;5089603;28;20059;-67
2021/01/26 04:35:11;;;;;;;18.13;3.45;;;4.90;99.90;;;;;;5088154;28;20499;-67
2021/01/26 04:37:37;;;;;;;23.20;3.08;;;4.90;99.90;;;;;;5089660;28;20040;-66
2021/01/26 04:40:06;;;;;;;10.55;2.63;;;4.90;99.90;;;;;;5070938;28;20027;-65
2021/01/26 04:42:40;;;;;;;18.02;2.92;;;5.00;99.90;;;;;;5098048;28;20031;-66
2021/01/26 04:45:32;;;;;;;24.00;3.28;;;5.00;99.90;;;;;;5066201;28;20040;-67
2021/01/26 04:48:19;;;;;;;14.30;3.40;;;5.00;99.90;;;;;;5069915;28;20098;-66
2021/01/26 04:50:51;;;;;;;20.48;3.53;;;5.00;99.90;;;;;;5089356;28;20121;-66
2021/01/26 04:53:42;;;;;;;17.80;3.15;;;5.00;99.90;;;;;;5088028;28;20031;-65
2021/01/26 04:57:01;;;;;;;22.73;3.13;;;4.90;99.90;;;;;;5087616;28;20166;-68
2021/01/26 04:59:57;;;;;;;30.67;3.90;;;4.90;99.90;;;;;;5083766;28;20040;-67
2021/01/26 05:02:37;;;;;;;18.48;3.00;;;4.90;99.90;;;;;;5015330;28;20029;-67
2021/01/26 05:05:18;;;;;;;19.33;3.10;;;4.90;99.90;;;;;;5053894;28;20500;-67
2021/01/26 05:07:49;;;;;;;20.77;2.72;;;4.80;99.90;;;;;;5083233;28;20031;-63
2021/01/26 05:10:24;;;;;;;26.90;3.63;;;4.80;99.90;;;;;;5089072;28;20034;-68
2021/01/26 05:13:02;;;;;;;17.25;2.58;;;4.80;99.90;;;;;;5084031;28;20035;-68
2021/01/26 05:15:36;;;;;;;19.45;2.70;;;4.80;99.90;;;;;;5084428;28;20623;-67
2021/01/26 05:18:15;;;;;;;23.67;3.42;;;4.80;99.90;;;;;;5071713;28;20028;-66
2021/01/26 05:20:44;;;;;;;12.15;1.92;;;4.80;99.90;;;;;;5081873;28;20114;-67
2021/01/26 05:23:18;;;;;;;5.25;1.42;;;4.40;99.90;;;;;;5087819;28;20035;-70
2021/01/26 05:25:44;;;;;;;6.05;1.23;;;3.60;99.90;;;;;;5089909;28;20020;-68
2021/01/26 05:28:10;;;;;;;2.72;0.93;;;3.30;99.90;;;;;;5086001;28;20134;-70
2021/01/26 05:30:37;;;;;;;10.27;1.10;;;3.20;99.90;;;;;;5089139;28;20541;-70
2021/01/26 05:33:13;;;;;;;6.65;1.10;;;3.20;99.90;;;;;;5089470;28;20062;-68
2021/01/26 05:35:43;;;;;;;3.28;0.88;;;3.20;99.90;;;;;;5070045;28;20097;-69
2021/01/26 05:38:09;;;;;;;9.32;1.30;;;3.30;99.90;;;;;;5089627;28;20054;-72
2021/01/26 05:40:39;;;;;;;12.68;1.50;;;3.30;99.90;;;;;;5090166;28;20442;-71
2021/01/26 05:43:10;;;;;;;5.10;1.13;;;3.40;99.90;;;;;;5069463;28;20074;-70
2021/01/26 05:45:44;;;;;;;3.65;1.00;;;3.30;99.90;;;;;;5083204;28;20106;-69
2021/01/26 05:48:13;;;;;;;8.73;1.17;;;3.40;99.90;;;;;;5083722;28;20036;-69
2021/01/26 05:50:42;;;;;;;14.80;2.05;;;3.40;99.90;;;;;;5085211;28;20027;-68
2021/01/26 05:53:22;;;;;;;10.80;1.20;;;3.40;99.90;;;;;;5082286;28;20363;-70
2021/01/26 05:56:08;;;;;;;12.23;1.70;;;3.50;99.90;;;;;;5084179;28;20060;-71
2021/01/26 05:58:34;;;;;;;13.35;1.70;;;3.50;99.90;;;;;;5089314;28;20023;-69
2021/01/26 06:01:03;;;;;;;13.70;2.35;;;3.60;99.90;;;;;;5088174;28;20049;-69
2021/01/26 06:03:30;;;;;;;20.15;3.83;;;3.70;99.90;;;;;;5086408;28;20067;-70
2021/01/26 06:06:02;;;;;;;17.52;3.92;;;3.80;99.90;;;;;;5085489;28;20062;-69
2021/01/26 06:08:28;;;;;;;34.10;5.38;;;4.00;99.90;;;;;;5086315;28;20035;-69
2021/01/26 06:10:54;;;;;;;23.92;4.85;;;4.30;99.90;;;;;;5089296;28;20028;-70
2021/01/26 06:13:30;;;;;;;20.77;3.67;;;4.40;99.90;;;;;;5083300;28;20024;-69
2021/01/26 06:16:13;;;;;;;15.32;3.67;;;4.40;99.90;;;;;;5065506;28;20067;-67
2021/01/26 06:19:03;;;;;;;20.48;4.43;;;4.50;99.90;;;;;;5085117;28;20035;-69
2021/01/26 06:21:30;;;;;;;21.10;4.35;;;4.60;99.90;;;;;;5074720;28;20504;-68
2021/01/26 06:23:57;;;;;;;21.83;4.75;;;4.60;99.90;;;;;;5086028;28;20032;-70
2021/01/26 06:26:31;;;;;;;10.10;3.10;;;4.70;99.90;;;;;;5050079;28;20023;-68
2021/01/26 06:29:52;;;;;;;16.35;2.63;;;4.60;99.90;;;;;;5069046;28;20116;-69
2021/01/26 06:32:31;;;;;;;9.07;1.38;;;4.10;99.90;;;;;;5047986;28;20028;-67
2021/01/26 06:35:11;;;;;;;15.45;1.42;;;3.70;99.90;;;;;;5084181;28;20116;-67
2021/01/26 06:37:53;;;;;;;6.03;1.77;;;3.70;99.90;;;;;;5061283;28;20042;-67
2021/01/26 06:40:33;;;;;;;6.32;1.58;;;3.70;99.90;;;;;;5085147;28;20087;-70
2021/01/26 06:43:02;;;;;;;11.05;1.70;;;3.80;99.90;;;;;;5088023;28;21012;-70
2021/01/26 06:45:58;;;;;;;15.73;2.00;;;3.80;99.90;;;;;;5077580;28;20025;-68
2021/01/26 06:49:22;;;;;;;11.75;1.88;;;3.90;99.90;;;;;;5046276;28;20447;-69
2021/01/26 06:51:59;;;;;;;3.22;1.00;;;4.00;99.90;;;;;;5032555;28;20543;-69
2021/01/26 06:54:46;;;;;;;7.28;1.50;;;3.90;99.90;;;;;;5085719;28;20027;-69
2021/01/26 06:57:33;;;;;;;6.25;0.80;;;3.80;99.90;;;;;;5069719;28;20068;-68
2021/01/26 07:00:28;;;;;;;8.25;1.40;;;3.70;99.90;;;;;;5084768;28;20016;-69
2021/01/26 07:03:38;;;;;;;3.95;1.02;;;3.70;99.90;;;;;;5086040;28;20541;-68
2021/01/26 07:06:33;;;;;;;4.75;1.00;;;3.60;99.90;;;;;;5087871;28;20034;-68
2021/01/26 07:09:11;;;;;;;4.22;0.90;;;3.60;99.90;;;;;;5078717;28;20017;-68
2021/01/26 07:11:43;;;;;;;10.80;1.35;;;3.60;99.90;;;;;;5087853;28;20024;-70
2021/01/26 07:14:09;;;;;;;4.25;1.15;;;3.70;99.90;;;;;;5087676;28;20394;-69
2021/01/26 07:16:49;;;;;;;9.00;1.52;;;3.70;99.90;;;;;;5073593;28;20031;-69
2021/01/26 07:19:36;;;;;;;8.52;1.58;;;3.70;99.90;;;;;;5087812;28;20020;-70
2021/01/26 07:22:46;;;;;;;7.38;0.88;;;3.70;99.90;;;;;;5087328;28;20008;-69
2021/01/26 07:25:15;;;;;;;8.95;0.82;;;3.70;99.90;;;;;;5084834;28;20062;-70
2021/01/26 07:27:49;;;;;;;1.77;0.60;;;3.70;99.90;;;;;;5082672;28;20086;-70
2021/01/26 07:30:26;;;;;;;7.68;0.98;;;3.70;99.90;;;;;;5074190;28;20358;-70
2021/01/26 07:32:58;;;;;;;7.63;0.82;;;3.70;99.90;;;;;;5082118;28;20067;-70
2021/01/26 07:35:38;;;;;;;3.85;0.73;;;3.70;99.90;;;;;;5084388;28;20028;-69
2021/01/26 07:38:25;;;;;;;4.50;0.82;;;3.70;99.90;;;;;;5079127;28;20402;-70
2021/01/26 07:41:19;;;;;;;11.45;1.63;;;3.70;99.90;;;;;;5087456;28;20103;-69
2021/01/26 07:43:51;;;;;;;5.45;1.02;;;3.80;99.90;;;;;;5086035;28;20070;-70
2021/01/26 07:46:32;;;;;;;8.20;1.63;;;3.80;99.90;;;;;;5087395;28;20024;-69
2021/01/26 07:49:20;;;;;;;6.32;1.30;;;3.80;99.90;;;;;;5087480;28;20111;-70
2021/01/26 07:51:51;;;;;;;5.88;2.08;;;3.90;99.90;;;;;;5056134;28;20013;-70
2021/01/26 07:55:00;;;;;;;5.18;2.05;;;3.90;99.90;;;;;;5087172;28;20044;-69
2021/01/26 07:57:52;;;;;;;10.63;2.70;;;3.90;99.90;;;;;;5080306;28;20044;-70
2021/01/26 08:00:22;;;;;;;15.88;3.30;;;4.00;99.90;;;;;;5065063;28;20040;-71
2021/01/26 08:02:56;;;;;;;20.38;2.90;;;4.00;99.90;;;;;;5084572;28;20066;-71
2021/01/26 08:05:45;;;;;;;7.93;2.65;;;4.10;99.90;;;;;;5091109;28;20050;-72
2021/01/26 08:08:25;;;;;;;10.73;2.90;;;4.10;99.90;;;;;;5089486;28;20026;-69
2021/01/26 08:11:21;;;;;;;18.48;3.75;;;4.10;99.90;;;;;;5086865;28;20531;-70
2021/01/26 08:13:59;;;;;;;9.55;3.15;;;4.10;99.90;;;;;;5084300;28;20062;-71
2021/01/26 08:16:30;;;;;;;14.77;3.33;;;4.10;99.90;;;;;;5071314;28;20044;-71
2021/01/26 08:19:00;;;;;;;19.23;3.83;;;4.10;99.90;;;;;;5065107;28;20023;-69
2021/01/26 08:21:27;;;;;;;12.43;3.10;;;4.00;99.90;;;;;;5069536;28;20032;-71
2021/01/26 08:24:30;;;;;;;8.48;2.25;;;4.10;99.90;;;;;;5068947;28;20044;-71
2021/01/26 08:27:24;;;;;;;7.45;2.15;;;4.10;99.90;;;;;;5049043;28;20107;-71
2021/01/26 08:29:54;;;;;;;14.20;2.13;;;4.00;99.90;;;;;;5051542;28;20460;-71
2021/01/26 08:32:22;;;;;;;12.80;1.50;;;4.00;99.90;;;;;;5051269;28;20546;-70
2021/01/26 08:34:58;;;;;;;8.73;1.75;;;4.00;99.90;;;;;;5051534;28;20021;-70
2021/01/26 08:37:43;;;;;;;5.43;1.30;;;4.00;99.90;;;;;;5051362;28;20062;-71
2021/01/26 08:40:10;;;;;;;10.38;1.48;;;3.90;99.90;;;;;;5061551;28;20025;-70
2021/01/26 08:42:53;;;;;;;7.00;1.15;;;3.90;99.90;;;;;;5069025;28;20380;-68
2021/01/26 08:45:25;;;;;;;9.02;1.17;;;3.90;99.90;;;;;;5041006;28;20128;-72
2021/01/26 08:47:58;;;;;;;11.07;1.20;;;3.90;99.90;;;;;;5070730;28;20021;-70
2021/01/26 08:50:42;;;;;;;6.63;1.00;;;3.90;99.90;;;;;;5071368;28;20025;-71
2021/01/26 08:53:19;;;;;;;5.78;0.70;;;3.90;99.90;;;;;;5070795;28;20162;-73
2021/01/26 08:55:57;;;;;;;6.50;1.52;;;4.00;99.90;;;;;;5069498;28;20382;-71
2021/01/26 08:58:43;;;;;;;5.93;1.42;;;4.00;99.90;;;;;;5070036;28;20115;-70
2021/01/26 09:01:22;;;;;;;9.00;1.77;;;4.00;99.90;;;;;;5054811;28;20525;-70
2021/01/26 09:03:49;;;;;;;10.63;1.98;;;4.10;99.90;;;;;;5038617;28;20063;-70
2021/01/26 09:06:43;;;;;;;10.52;1.85;;;4.10;99.90;;;;;;5051328;28;20386;-68
2021/01/26 09:09:23;;;;;;;7.10;2.20;;;4.10;99.90;;;;;;5059376;28;20470;-68
2021/01/26 09:11:55;;;;;;;11.57;1.83;;;4.20;99.90;;;;;;5067642;28;20024;-69
2021/01/26 09:14:33;;;;;;;9.80;1.47;;;4.20;99.90;;;;;;5073099;28;20519;-71
2021/01/26 09:17:30;;;;;;;8.50;1.60;;;4.20;99.90;;;;;;5073149;28;20622;-69
2021/01/26 09:20:13;;;;;;;4.53;0.82;;;4.10;99.90;;;;;;5059436;28;20035;-69
2021/01/26 09:22:40;;;;;;;4.72;1.30;;;4.10;99.90;;;;;;5067008;28;20497;-68
2021/01/26 09:25:14;;;;;;;9.32;1.50;;;4.20;99.90;;;;;;5069675;28;20280;-69
2021/01/26 09:27:41;;;;;;;3.28;1.00;;;4.20;99.90;;;;;;5069723;28;20025;-71
2021/01/26 09:30:21;;;;;;;5.47;1.20;;;4.30;99.90;;;;;;5068638;28;20074;-69
2021/01/26 09:33:07;;;;;;;15.25;1.90;;;4.30;99.90;;;;;;5069521;28;20021;-72
2021/01/26 09:35:43;;;;;;;8.60;2.85;;;4.40;99.90;;;;;;5058546;28;20375;-70
2021/01/26 09:38:11;;;;;;;14.38;3.65;;;4.50;99.90;;;;;;5072889;28;20040;-71
2021/01/26 09:40:40;;;;;;;19.67;3.80;;;4.70;99.90;;;;;;5070003;28;20321;-69
2021/01/26 09:43:13;;;;;;;13.93;3.42;;;4.70;99.90;;;;;;5085790;28;20020;-71
2021/01/26 09:45:39;;;;;;;16.15;4.32;;;4.80;99.90;;;;;;5088065;28;20012;-69
2021/01/26 09:48:06;;;;;;;12.25;4.57;;;4.80;99.90;;;;;;5079934;28;20531;-71
2021/01/26 09:50:32;;;;;;;16.20;4.05;;;4.80;99.90;;;;;;5052123;28;20111;-71
2021/01/26 09:53:00;;;;;;;14.38;4.20;;;4.80;99.90;;;;;;5066660;28;20021;-70
2021/01/26 09:55:28;;;;;;;13.77;4.65;;;4.90;99.90;;;;;;5071297;28;20041;-72
2021/01/26 09:57:55;;;;;;;14.38;4.03;;;5.00;99.90;;;;;;5051794;28;20032;-71
2021/01/26 10:00:26;;;;;;;18.20;4.45;;;5.00;99.90;;;;;;5051739;28;20028;-70
2021/01/26 10:03:00;;;;;;;15.48;4.35;;;5.20;99.90;;;;;;5067734;28;20023;-70
2021/01/26 10:05:29;;;;;;;19.52;5.22;;;5.10;99.90;;;;;;5069251;28;20031;-68
2021/01/26 10:08:10;;;;;;;27.08;5.72;;;5.00;99.90;;;;;;5082492;28;20023;-70
2021/01/26 10:10:38;;;;;;;13.35;5.50;;;5.00;99.90;;;;;;5069417;28;20063;-70
2021/01/26 10:13:35;;;;;;;27.45;6.53;;;5.00;99.90;;;;;;5068223;28;20024;-71
2021/01/26 10:16:25;;;;;;;17.23;5.32;;;5.00;99.90;;;;;;5073539;28;20155;-71
2021/01/26 10:18:50;;;;;;;31.42;6.82;;;5.10;99.90;;;;;;5069756;28;20096;-70
2021/01/26 10:21:30;;;;;;;23.77;6.13;;;5.20;99.90;;;;;;5069094;28;20138;-72
2021/01/26 10:24:03;;;;;;;26.98;5.53;;;5.20;99.90;;;;;;5085063;28;20020;-70
2021/01/26 10:26:39;;;;;;;;;;;5.10;99.90;;;;;;5079866;28;20020;-72
2021/01/26 10:29:12;;;;;;;18.80;5.30;;;5.00;99.90;;;;;;5050384;28;19908;-72
2021/01/26 10:31:47;;;;;;;24.00;5.20;;;5.00;99.90;;;;;;5068541;28;20028;-69
2021/01/26 10:34:35;;;;;;;17.85;4.72;;;5.10;99.90;;;;;;5049431;28;20064;-71
2021/01/26 10:37:28;;;;;;;13.82;5.13;;;5.20;99.90;;;;;;5080465;28;20516;-71
2021/01/26 10:40:14;;;;;;;15.15;4.20;;;5.10;99.90;;;;;;5077061;28;20204;-70
2021/01/26 10:42:45;;;;;;;19.20;4.25;;;5.00;99.90;;;;;;5066706;28;20024;-71
2021/01/26 10:45:12;;;;;;;14.32;2.53;;;5.00;99.90;;;;;;5050427;28;20031;-69
2021/01/26 10:47:40;;;;;;;4.55;1.95;;;4.90;99.90;;;;;;5051483;28;20237;-71
2021/01/26 10:50:27;;;;;;;9.55;1.98;;;4.90;99.90;;;;;;5084940;28;20103;-70
2021/01/26 10:52:53;;;;;;;9.38;2.10;;;4.90;99.90;;;;;;5070604;28;20032;-69
2021/01/26 10:55:21;;;;;;;5.30;2.42;;;4.90;99.90;;;;;;5077653;28;20024;-68
2021/01/26 10:57:50;;;;;;;10.10;3.53;;;4.90;99.90;;;;;;5066534;28;20454;-70
2021/01/26 11:00:23;;;;;;;8.48;2.28;;;5.00;99.90;;;;;;5068972;28;20029;-71
2021/01/26 11:02:50;;;;;;;12.65;2.63;;;5.00;99.90;;;;;;5067945;28;20024;-71
2021/01/26 11:05:16;;;;;;;12.90;2.47;;;5.00;99.90;;;;;;5064256;28;20023;-71
2021/01/26 11:07:43;;;;;;;4.68;2.38;;;5.00;99.90;;;;;;5047272;28;20065;-69
2021/01/26 11:10:09;;;;;;;10.73;2.58;;;5.00;99.90;;;;;;5030461;28;20032;-69
2021/01/26 11:12:40;;;;;;;12.98;2.60;;;5.10;99.90;;;;;;5063179;28;20481;-71
2021/01/26 11:15:12;;;;;;;11.80;2.50;;;5.10;99.90;;;;;;5050533;28;20090;-72
2021/01/26 11:17:38;;;;;;;;;;;5.10;99.90;;;;;;5081710;28;20385;-69
2021/01/26 11:20:07;;;;;;;12.35;2.55;;;5.30;99.90;;;;;;5076510;28;19904;-71
2021/01/26 11:22:34;;;;;;;7.47;2.50;;;5.50;99.90;;;;;;5081384;28;20017;-70
2021/01/26 11:25:01;;;;;;;10.75;2.90;;;5.70;99.90;;;;;;5088288;28;20049;-71
2021/01/26 11:27:27;;;;;;;11.82;3.08;;;5.90;99.90;;;;;;5070863;28;20114;-72
2021/01/26 11:29:54;;;;;;;9.02;2.95;;;5.90;99.90;;;;;;5100603;28;20197;-71
2021/01/26 11:32:19;;;;;;;13.55;3.40;;;6.00;99.90;;;;;;5087880;28;20055;-72
2021/01/26 11:34:48;;;;;;;7.00;2.95;;;5.90;99.90;;;;;;5092226;28;20013;-72
2021/01/26 11:37:14;;;;;;;11.25;3.42;;;5.90;99.90;;;;;;5082818;28;20036;-70
2021/01/26 11:39:39;;;;;;;10.90;3.28;;;5.80;99.90;;;;;;5091460;28;20070;-71
2021/01/26 11:42:07;;;;;;;13.15;3.80;;;5.90;99.90;;;;;;5081902;28;20417;-70
2021/01/26 11:44:34;;;;;;;6.32;3.17;;;6.00;99.90;;;;;;5070956;28;20027;-71
2021/01/26 11:46:59;;;;;;;6.45;2.90;;;6.00;99.90;;;;;;5083095;28;20017;-72
2021/01/26 11:49:25;;;;;;;17.85;3.30;;;6.00;99.90;;;;;;5089117;28;20092;-72
2021/01/26 11:51:50;;;;;;;14.00;3.45;;;6.00;99.90;;;;;;5089359;28;20481;-71
2021/01/26 11:54:16;;;;;;;18.38;3.25;;;5.90;99.90;;;;;;5090656;28;20240;-70
2021/01/26 11:56:44;;;;;;;19.02;3.42;;;5.90;99.90;;;;;;5087829;28;20114;-72
2021/01/26 11:59:10;;;;;;;14.43;3.08;;;6.10;99.90;;;;;;5091705;28;20016;-72
2021/01/26 12:01:36;;;;;;;12.77;3.58;;;6.50;99.90;;;;;;5091983;28;20031;-71
2021/01/26 12:04:04;;;;;;;12.85;2.92;;;7.00;99.90;;;;;;5073874;28;20020;-73
2021/01/26 12:06:29;;;;;;;15.35;3.17;;;7.40;99.90;;;;;;5086773;28;20024;-73
2021/01/26 12:08:56;;;;;;;6.72;2.28;;;7.60;99.90;;;;;;5089647;28;20024;-72
2021/01/26 12:11:26;;;;;;;18.27;2.55;;;7.30;99.90;;;;;;5089935;28;20103;-72
2021/01/26 12:13:51;;;;;;;9.07;1.90;;;7.40;99.90;;;;;;5091194;28;20024;-72
2021/01/26 12:16:17;;;;;;;9.95;1.40;;;7.50;99.90;;;;;;5091063;28;20079;-71
2021/01/26 12:18:44;;;;;;;14.73;2.22;;;7.60;99.90;;;;;;5089286;28;20378;-73
2021/01/26 12:21:09;;;;;;;17.83;2.40;;;7.50;99.90;;;;;;5072400;28;20396;-72
2021/01/26 12:23:35;;;;;;;7.88;1.90;;;7.80;99.90;;;;;;5078734;28;20025;-73
2021/01/26 12:26:00;;;;;;;10.70;1.73;;;7.50;99.90;;;;;;5088002;28;20012;-74
2021/01/26 12:28:27;;;;;;;7.82;1.60;;;7.80;99.90;;;;;;5091124;28;20566;-73
2021/01/26 12:30:53;;;;;;;9.98;1.20;;;7.90;99.90;;;;;;5081971;28;20027;-71
2021/01/26 12:33:19;;;;;;;5.50;1.38;;;7.70;99.90;;;;;;5068147;28;20482;-72
2021/01/26 12:35:47;;;;;;;14.93;1.63;;;7.70;99.90;;;;;;5081197;28;20028;-71
2021/01/26 12:38:12;;;;;;;9.23;1.60;;;7.70;99.90;;;;;;5069370;28;20555;-71
2021/01/26 12:40:39;;;;;;;11.07;1.48;;;7.70;99.90;;;;;;5068703;28;20028;-71
2021/01/26 12:43:07;;;;;;;14.20;2.28;;;7.70;99.90;;;;;;5068665;28;20048;-73
2021/01/26 12:45:34;;;;;;;6.53;1.52;;;8.00;99.90;;;;;;5083953;28;20122;-72
2021/01/26 12:48:01;;;;;;;13.35;2.17;;;8.10;99.90;;;;;;5084421;28;20429;-72
2021/01/26 12:50:30;;;;;;;13.23;1.35;;;7.80;99.90;;;;;;5090251;28;20127;-72
2021/01/26 12:52:56;;;;;;;13.60;1.90;;;7.80;99.90;;;;;;5085890;28;20107;-71
2021/01/26 12:55:23;;;;;;;7.50;1.40;;;7.90;99.90;;;;;;5090328;28;20135;-71
2021/01/26 12:57:49;;;;;;;6.05;1.30;;;8.10;99.90;;;;;;5084880;28;20258;-72
2021/01/26 13:00:18;;;;;;;6.10;1.70;;;8.20;99.90;;;;;;5080784;28;20069;-71
2021/01/26 13:02:44;;;;;;;10.32;1.63;;;7.90;99.90;;;;;;5081559;28;20074;-72
2021/01/26 13:05:12;;;;;;;12.23;3.25;;;7.70;99.90;;;;;;5073588;28;20549;-72
2021/01/26 13:07:38;;;;;;;9.45;2.30;;;7.60;99.90;;;;;;5077426;28;20592;-71
2021/01/26 13:10:05;;;;;;;13.23;1.85;;;7.80;99.90;;;;;;5042463;28;20120;-71
2021/01/26 13:12:31;;;;;;;4.53;1.48;;;7.80;99.90;;;;;;5089205;28;20033;-69
2021/01/26 13:14:56;;;;;;;11.55;1.88;;;7.30;99.90;;;;;;5069573;28;20592;-69
2021/01/26 13:17:22;;;;;;;15.82;3.15;;;7.10;99.90;;;;;;5085510;28;20039;-69
2021/01/26 13:19:47;;;;;;;13.40;4.35;;;6.90;99.90;;;;;;5089243;28;20425;-71
2021/01/26 13:22:13;;;;;;;10.30;3.25;;;6.60;99.90;;;;;;5088267;28;20099;-69
2021/01/26 13:24:38;;;;;;;10.80;1.80;;;6.50;99.90;;;;;;5090119;28;20020;-69